Time;durP1;ratioP1;P1;durP2;ratioP2;P2;SDS_P1;SDS_P2;PMS_P1;PMS_P2;Temp;Humidity;BMP_temperature;BMP_pressure;BME280_temperature;BME280_humidity;BME280_pressure;Samples;Min_cycle;Max_cycle;Signal;HPM_P1;HPM_P2
2022/06/26 00:01:09;;;;;;;46.63;26.45;;;;;;;19.73;63.47;101228.53;5206446;28;20844;-36
2022/06/26 00:03:42;;;;;;;42.00;26.33;;;;;;;19.74;63.59;101230.19;5201318;28;20416;-45
2022/06/26 00:06:15;;;;;;;36.35;24.92;;;;;;;19.70;63.53;101225.44;5204360;28;20417;-36
2022/06/26 00:08:49;;;;;;;42.97;27.02;;;;;;;19.75;63.55;101226.47;5204420;28;20522;-37
2022/06/26 00:11:21;;;;;;;37.97;24.50;;;;;;;19.70;63.70;101228.94;5199685;28;20512;-37
2022/06/26 00:13:56;;;;;;;37.17;25.95;;;;;;;19.73;63.45;101228.53;5199657;28;20475;-35
2022/06/26 00:16:29;;;;;;;41.83;26.75;;;;;;;19.72;63.60;101231.41;5199894;28;20409;-36
2022/06/26 00:19:05;;;;;;;37.00;26.95;;;;;;;19.70;63.69;101239.66;5205954;28;20516;-36
2022/06/26 00:21:37;;;;;;;41.97;27.83;;;;;;;19.68;63.67;101240.88;5197678;28;20606;-37
2022/06/26 00:24:11;;;;;;;42.40;28.65;;;;;;;19.66;63.97;101227.69;5203878;28;20429;-37
2022/06/26 00:26:44;;;;;;;41.22;28.55;;;;;;;19.61;63.81;101214.03;5201725;28;20408;-37
2022/06/26 00:29:16;;;;;;;37.58;26.67;;;;;;;19.63;64.07;101222.69;5202726;28;20421;-35
2022/06/26 00:31:49;;;;;;;40.38;27.67;;;;;;;19.60;63.98;101217.72;5200385;28;20432;-36
2022/06/26 00:34:21;;;;;;;41.40;28.30;;;;;;;19.61;63.97;101240.84;5202808;28;20444;-36
2022/06/26 00:36:54;;;;;;;41.30;29.98;;;;;;;19.61;64.05;101230.13;5202539;28;20552;-36
2022/06/26 00:39:28;;;;;;;46.10;31.65;;;;;;;19.62;64.05;101236.28;5200603;28;20499;-37
2022/06/26 00:42:00;;;;;;;43.05;28.45;;;;;;;19.50;63.96;101214.59;5205259;28;20443;-37
2022/06/26 00:44:34;;;;;;;52.90;30.00;;;;;;;19.47;64.23;101223.03;5204745;28;20411;-36
2022/06/26 00:47:06;;;;;;;43.88;28.73;;;;;;;19.25;64.28;101215.09;5204968;28;20405;-37
2022/06/26 00:49:39;;;;;;;38.53;28.13;;;;;;;19.34;64.25;101229.97;5201792;28;20424;-36
2022/06/26 00:52:12;;;;;;;44.60;28.75;;;;;;;19.39;64.46;101244.63;5203320;28;20425;-36
2022/06/26 00:54:46;;;;;;;42.00;29.08;;;;;;;19.45;64.48;101246.50;5204204;28;20437;-38
2022/06/26 00:57:19;;;;;;;40.47;27.58;;;;;;;19.43;64.44;101257.44;5206092;28;20420;-37
2022/06/26 00:59:52;;;;;;;38.23;27.37;;;;;;;19.40;64.54;101254.31;5201872;28;20592;-37
2022/06/26 01:02:25;;;;;;;38.20;28.87;;;;;;;19.38;64.60;101251.00;5205276;28;20508;-36
2022/06/26 01:04:57;;;;;;;39.93;27.00;;;;;;;19.30;64.64;101235.94;5201776;28;20409;-37
2022/06/26 01:07:31;;;;;;;39.77;28.93;;;;;;;19.39;64.73;101241.94;5201847;28;20510;-36
2022/06/26 01:10:07;;;;;;;42.35;28.23;;;;;;;19.38;64.57;101234.94;5200463;28;20768;-38
2022/06/26 01:12:39;;;;;;;40.60;28.92;;;;;;;19.44;64.59;101252.91;5195689;28;20443;-36
2022/06/26 01:15:12;;;;;;;38.15;27.83;;;;;;;19.43;64.59;101251.25;5200716;28;20492;-38
2022/06/26 01:17:44;;;;;;;40.67;28.25;;;;;;;19.46;64.66;101253.53;5202050;28;20408;-37
2022/06/26 01:20:17;;;;;;;40.00;27.85;;;;;;;19.42;64.65;101257.63;5205871;28;20432;-36
2022/06/26 01:23:01;;;;;;;35.78;26.67;;;;;;;19.38;64.72;101256.38;5210885;28;20563;-36
2022/06/26 01:25:46;;;;;;;37.60;26.65;;;;;;;19.29;65.02;101248.50;5204385;28;20406;-36
2022/06/26 01:28:19;;;;;;;39.13;28.42;;;;;;;19.33;65.00;101252.44;5205885;28;20475;-36
2022/06/26 01:30:51;;;;;;;37.78;26.60;;;;;;;19.33;65.05;101255.13;5207928;28;20463;-35
2022/06/26 01:33:24;;;;;;;38.47;26.63;;;;;;;18.74;64.79;101163.75;5209651;28;20425;-37
2022/06/26 01:35:57;;;;;;;36.25;27.52;;;;;;;19.08;64.95;101224.47;5212809;28;20901;-35
2022/06/26 01:38:31;;;;;;;40.28;28.08;;;;;;;19.22;64.95;101252.97;5211667;28;20397;-36
2022/06/26 01:41:03;;;;;;;44.47;29.83;;;;;;;19.26;65.13;101258.75;5210458;28;21901;-38
2022/06/26 01:43:39;;;;;;;48.97;30.60;;;;;;;19.25;65.11;101252.59;5213130;28;20500;-37
2022/06/26 01:46:12;;;;;;;42.30;29.38;;;;;;;19.22;65.05;101257.50;5206984;28;20947;-37
2022/06/26 01:48:44;;;;;;;41.50;29.25;;;;;;;19.18;65.04;101257.06;5187650;28;20428;-34
2022/06/26 01:51:16;;;;;;;40.88;29.17;;;;;;;19.15;65.00;101256.66;5204400;28;20424;-37
2022/06/26 01:53:50;;;;;;;40.25;29.15;;;;;;;19.11;65.12;101250.88;5209495;28;20444;-37
2022/06/26 01:56:23;;;;;;;44.63;29.17;;;;;;;19.14;65.02;101261.19;5210687;28;20512;-37
2022/06/26 01:58:55;;;;;;;42.50;29.77;;;;;;;19.16;65.03;101264.47;5209142;28;20852;-37
2022/06/26 02:01:28;;;;;;;44.95;29.55;;;;;;;19.11;64.86;101259.72;5211440;28;21370;-36
2022/06/26 02:04:00;;;;;;;43.25;30.23;;;;;;;19.09;64.88;101266.28;5212651;28;20393;-36
2022/06/26 02:06:33;;;;;;;47.70;28.50;;;;;;;19.10;65.03;101274.09;5205630;28;20413;-37
2022/06/26 02:13:35;;;;;;;52.78;31.73;;;;;;;19.08;64.98;101267.31;5213995;28;20812;-36
2022/06/26 02:14:49;;;;;;;42.55;29.77;;;;;;;19.02;64.95;101260.88;5209877;28;20425;-36
2022/06/26 02:17:22;;;;;;;44.50;29.17;;;;;;;18.97;65.20;101265.16;5199986;28;20516;-40
2022/06/26 02:19:54;;;;;;;43.67;29.48;;;;;;;18.96;65.11;101274.22;5206030;28;20945;-36
2022/06/26 02:22:26;;;;;;;44.42;29.42;;;;;;;18.93;65.12;101271.94;5211242;28;20427;-37
2022/06/26 02:25:01;;;;;;;47.72;30.80;;;;;;;18.92;65.15;101278.28;5207165;28;20868;-39
2022/06/26 02:27:34;;;;;;;45.47;30.20;;;;;;;18.94;65.05;101276.25;5208787;28;20432;-36
2022/06/26 02:30:08;;;;;;;47.30;32.58;;;;;;;18.98;65.06;101278.34;5211105;28;20820;-37
2022/06/26 02:32:40;;;;;;;50.95;35.30;;;;;;;18.95;64.86;101261.84;5202916;28;20834;-36
2022/06/26 02:35:13;;;;;;;50.30;33.97;;;;;;;18.67;64.85;101225.16;5204583;28;20769;-37
2022/06/26 02:37:45;;;;;;;53.35;35.17;;;;;;;18.93;64.98;101271.94;5201682;28;20457;-36
2022/06/26 02:40:20;;;;;;;50.47;33.08;;;;;;;18.95;64.81;101277.91;5208050;28;20506;-37
2022/06/26 02:42:53;;;;;;;58.75;35.05;;;;;;;18.89;64.89;101269.66;5205297;28;20496;-36
2022/06/26 02:45:26;;;;;;;64.20;35.58;;;;;;;18.83;64.79;101259.72;5203831;28;20417;-36
2022/06/26 02:47:58;;;;;;;59.42;35.70;;;;;;;18.72;64.88;101246.81;5205337;28;20426;-36
2022/06/26 02:50:31;;;;;;;55.95;34.15;;;;;;;18.77;65.07;101252.47;5201556;28;20394;-36
2022/06/26 02:53:04;;;;;;;58.10;34.42;;;;;;;18.79;64.84;101261.09;5201766;28;20416;-37
2022/06/26 02:55:38;;;;;;;55.92;34.05;;;;;;;18.70;64.93;101256.88;5207192;28;20889;-38
2022/06/26 02:58:10;;;;;;;57.22;34.38;;;;;;;18.64;65.03;101254.97;5202966;28;20840;-36
2022/06/26 03:00:43;;;;;;;58.22;33.80;;;;;;;18.59;65.02;101260.09;5205865;28;20452;-36
2022/06/26 03:03:15;;;;;;;53.25;32.53;;;;;;;18.47;64.99;101250.94;5208648;28;20453;-37
2022/06/26 03:05:48;;;;;;;54.17;33.85;;;;;;;18.44;65.17;101255.63;5203290;28;20413;-38
2022/06/26 03:08:20;;;;;;;55.33;34.70;;;;;;;18.46;65.06;101262.63;5179804;28;20534;-37
2022/06/26 03:10:54;;;;;;;55.47;34.22;;;;;;;18.43;64.98;101266.53;5197363;28;20492;-36
2022/06/26 03:13:26;;;;;;;53.25;32.83;;;;;;;18.38;64.96;101261.75;5206375;28;20437;-36
2022/06/26 03:15:59;;;;;;;52.28;32.88;;;;;;;18.39;64.92;101271.41;5207566;28;20917;-36
2022/06/26 03:18:31;;;;;;;50.95;32.17;;;;;;;18.33;64.92;101274.84;5203988;28;20417;-38
2022/06/26 03:21:05;;;;;;;54.58;31.90;;;;;;;18.31;65.02;101276.91;5200519;28;20496;-37
2022/06/26 03:26:29;;;;;;;52.97;31.15;;;;;;;18.19;65.00;101275.75;5198679;28;20410;-39
2022/06/26 03:29:03;;;;;;;50.53;31.00;;;;;;;17.90;64.99;101253.44;5204827;28;20412;-37
2022/06/26 03:31:36;;;;;;;53.97;31.30;;;;;;;18.14;65.14;101288.84;5204431;28;20407;-36
2022/06/26 03:34:09;;;;;;;49.47;29.23;;;;;;;18.07;65.06;101290.63;5204611;28;20853;-36
2022/06/26 03:36:41;;;;;;;45.03;29.33;;;;;;;18.07;65.26;101306.66;5205279;28;20941;-36
2022/06/26 03:39:14;;;;;;;54.08;28.20;;;;;;;18.04;65.04;101309.69;5206418;28;20415;-37
2022/06/26 03:42:00;;;;;;;43.72;27.00;;;;;;;18.00;65.12;101301.25;5201219;28;20814;-36
2022/06/26 03:44:32;;;;;;;50.45;28.20;;;;;;;17.91;65.12;101308.53;5204340;28;20786;-36
2022/06/26 03:47:05;;;;;;;43.80;26.13;;;;;;;17.92;65.03;101309.34;5203206;28;20436;-36
2022/06/26 03:49:38;;;;;;;45.40;27.45;;;;;;;17.93;65.14;101317.19;5200747;28;20846;-35
2022/06/26 03:52:10;;;;;;;54.88;27.55;;;;;;;17.91;65.21;101313.88;5202038;28;20793;-37
2022/06/26 03:54:43;;;;;;;51.55;28.33;;;;;;;17.80;65.03;101308.97;5206457;28;20879;-37
2022/06/26 03:57:17;;;;;;;49.45;28.25;;;;;;;17.85;64.88;101321.81;5204014;28;20851;-36
2022/06/26 03:59:49;;;;;;;47.53;26.70;;;;;;;17.83;65.08;101324.66;5205846;28;20947;-36
2022/06/26 04:02:21;;;;;;;50.53;27.92;;;;;;;17.81;65.12;101313.34;5204228;28;20426;-38
2022/06/26 04:04:54;;;;;;;51.00;27.05;;;;;;;17.80;65.17;101306.31;5191281;28;20463;-37
2022/06/26 04:07:26;;;;;;;48.77;28.10;;;;;;;17.73;65.15;101300.84;5200619;28;20488;-37
2022/06/26 04:09:59;;;;;;;46.93;26.83;;;;;;;17.69;65.16;101304.09;5203363;28;21053;-38
2022/06/26 04:12:32;;;;;;;47.88;25.77;;;;;;;17.48;65.25;101286.13;5187105;28;23601;-36
2022/06/26 04:15:07;;;;;;;48.20;26.05;;;;;;;17.69;65.34;101328.97;5179575;28;20414;-40
2022/06/26 04:17:39;;;;;;;52.20;26.55;;;;;;;17.68;65.32;101326.47;5178269;28;20450;-37
2022/06/26 04:20:13;;;;;;;41.67;25.88;;;;;;;17.71;65.36;101324.28;5179228;28;20463;-37
2022/06/26 04:22:54;;;;;;;41.63;25.20;;;;;;;17.67;65.43;101319.47;5181448;28;20446;-37
2022/06/26 04:25:28;;;;;;;41.50;25.23;;;;;;;17.72;65.51;101325.94;5179043;28;20534;-37
2022/06/26 04:28:02;;;;;;;38.47;24.48;;;;;;;17.73;65.35;101332.09;5185987;28;20432;-36
2022/06/26 04:30:35;;;;;;;43.13;24.42;;;;;;;17.73;65.37;101332.91;5182734;28;20859;-36
2022/06/26 04:33:08;;;;;;;40.97;24.35;;;;;;;17.71;65.55;101336.78;5184192;28;20485;-36
2022/06/26 04:35:40;;;;;;;43.70;23.38;;;;;;;17.75;65.57;101346.09;5181563;28;20949;-36
2022/06/26 04:38:13;;;;;;;38.72;22.67;;;;;;;17.75;65.58;101346.09;5150278;28;20430;-36
2022/06/26 04:40:46;;;;;;;34.30;22.92;;;;;;;17.80;65.62;101337.56;5176833;28;20430;-38
2022/06/26 04:43:20;;;;;;;34.58;21.27;;;;;;;17.82;65.54;101352.38;5183715;28;20430;-36
2022/06/26 04:45:52;;;;;;;33.80;20.13;;;;;;;17.83;65.51;101351.38;5183738;28;20436;-37
2022/06/26 04:48:24;;;;;;;38.28;19.98;;;;;;;17.84;65.58;101353.03;5185868;28;20462;-36
2022/06/26 04:50:57;;;;;;;31.83;19.75;;;;;;;17.88;65.56;101354.31;5180873;28;20497;-37
2022/06/26 04:53:32;;;;;;;32.55;19.27;;;;;;;17.93;65.42;101357.28;5181553;28;21450;-38
2022/06/26 04:56:05;;;;;;;32.83;18.58;;;;;;;17.88;65.47;101357.00;5179773;28;20439;-37
2022/06/26 04:58:39;;;;;;;29.30;17.97;;;;;;;17.68;65.43;101339.81;5183608;28;20415;-38
2022/06/26 05:01:11;;;;;;;26.67;17.10;;;;;;;18.02;65.55;101381.22;5178486;28;20423;-38
2022/06/26 05:03:44;;;;;;;29.25;17.17;;;;;;;17.90;65.48;101354.97;5183854;28;20514;-38
2022/06/26 05:06:16;;;;;;;25.42;15.57;;;;;;;18.15;65.33;101384.09;5181608;28;20419;-35
2022/06/26 05:08:49;;;;;;;26.98;15.25;;;;;;;18.61;64.49;101324.91;5180001;28;20439;-39
2022/06/26 05:11:21;;;;;;;22.15;14.63;;;;;;;20.23;62.75;101363.19;5183161;28;20411;-36
2022/06/26 05:13:55;;;;;;;22.67;12.50;;;;;;;21.97;61.28;101381.03;5197706;28;20491;-36
2022/06/26 05:16:27;;;;;;;14.70;10.48;;;;;;;23.12;60.49;101377.56;5203693;28;21195;-36
2022/06/26 05:19:00;;;;;;;14.68;8.55;;;;;;;24.22;59.52;101387.63;5200337;28;20484;-38
2022/06/26 05:21:33;;;;;;;16.48;8.63;;;;;;;25.24;57.98;101385.78;5203461;28;20416;-40
2022/06/26 05:24:07;;;;;;;12.70;8.48;;;;;;;26.05;56.96;101390.56;5202286;28;20405;-38
2022/06/26 05:26:40;;;;;;;17.23;8.52;;;;;;;26.82;55.85;101384.72;5200173;28;20955;-38
2022/06/26 05:29:13;;;;;;;16.80;8.07;;;;;;;27.44;54.53;101392.81;5200806;28;20417;-38
2022/06/26 05:31:46;;;;;;;11.40;7.35;;;;;;;27.91;53.53;101392.41;5207114;28;20413;-38
2022/06/26 05:34:19;;;;;;;13.52;7.55;;;;;;;28.15;52.74;101384.81;5202470;28;20421;-37
2022/06/26 05:37:28;;;;;;;13.63;7.45;;;;;;;28.56;51.72;101387.19;5202418;28;20417;-37
2022/06/26 05:40:00;;;;;;;15.25;7.05;;;;;;;29.25;50.42;101384.53;5199757;28;20417;-38
2022/06/26 05:42:33;;;;;;;11.93;6.95;;;;;;;29.98;49.14;101402.91;5201272;28;20424;-37
2022/06/26 05:45:08;;;;;;;14.30;7.40;;;;;;;29.90;48.89;101400.72;5206163;28;20510;-37
2022/06/26 05:47:41;;;;;;;13.00;7.10;;;;;;;30.01;48.11;101396.91;5198923;28;20891;-36
2022/06/26 05:50:14;;;;;;;10.95;7.00;;;;;;;30.30;47.56;101406.31;5202348;28;20445;-37
2022/06/26 05:52:46;;;;;;;11.65;7.28;;;;;;;30.21;47.10;101402.47;5200417;28;20896;-36
2022/06/26 05:55:19;;;;;;;12.00;6.40;;;;;;;30.27;46.67;101398.69;5201477;28;20520;-37
2022/06/26 05:57:51;;;;;;;14.45;6.25;;;;;;;30.70;45.88;101404.78;5204192;28;20413;-38
2022/06/26 06:00:25;;;;;;;13.25;6.22;;;;;;;30.90;45.12;101403.16;5205709;28;20460;-37
2022/06/26 06:02:58;;;;;;;15.75;6.63;;;;;;;31.10;44.69;101413.28;5197947;28;20432;-38
2022/06/26 06:05:30;;;;;;;17.95;6.50;;;;;;;31.16;44.14;101357.63;5202811;28;21247;-38
2022/06/26 06:08:04;;;;;;;14.40;6.88;;;;;;;31.69;43.45;101421.66;5209965;28;20406;-39
2022/06/26 06:10:36;;;;;;;11.70;6.57;;;;;;;31.40;43.66;101434.28;5200919;28;21852;-37
2022/06/26 06:13:09;;;;;;;12.77;6.43;;;;;;;30.65;44.11;101423.84;5205979;28;20824;-40
2022/06/26 06:15:43;;;;;;;12.45;6.82;;;;;;;30.06;44.43;101433.19;5202495;28;20424;-38
2022/06/26 06:18:15;;;;;;;10.18;6.82;;;;;;;29.17;45.01;101432.06;5204457;28;20410;-37
2022/06/26 06:20:50;;;;;;;11.40;5.53;;;;;;;28.55;45.60;101448.03;5202644;28;20574;-40
2022/06/26 06:23:22;;;;;;;9.32;5.57;;;;;;;27.95;46.02;101447.00;5204609;28;20414;-40
2022/06/26 06:25:55;;;;;;;12.75;6.55;;;;;;;27.48;46.10;101447.38;5201142;28;20433;-37
2022/06/26 06:28:29;;;;;;;10.00;5.60;;;;;;;27.89;45.80;101445.28;5204869;28;20437;-38
2022/06/26 06:31:03;;;;;;;8.98;4.50;;;;;;;27.90;45.59;101450.44;5182218;28;20412;-37
2022/06/26 06:33:35;;;;;;;8.48;4.45;;;;;;;27.93;45.39;101449.94;5201506;28;20494;-37
2022/06/26 06:36:08;;;;;;;9.15;4.72;;;;;;;27.81;45.27;101458.22;5210294;28;20433;-38
2022/06/26 06:38:40;;;;;;;10.13;5.03;;;;;;;27.22;45.63;101455.09;5205158;28;20869;-39
2022/06/26 06:41:13;;;;;;;7.63;4.70;;;;;;;26.64;46.12;101462.47;5204838;28;20500;-37
2022/06/26 06:43:46;;;;;;;17.37;5.23;;;;;;;26.19;46.48;101473.16;5208369;28;20441;-38
2022/06/26 06:46:20;;;;;;;11.13;5.20;;;;;;;25.57;47.11;101465.50;5209621;28;20475;-36
2022/06/26 06:48:52;;;;;;;10.60;4.50;;;;;;;25.22;47.11;101443.84;5205429;28;20449;-37
2022/06/26 06:51:25;;;;;;;11.18;4.70;;;;;;;25.46;47.04;101482.56;5207382;28;20913;-38
2022/06/26 06:53:57;;;;;;;9.75;5.10;;;;;;;25.40;47.06;101480.78;5204380;28;20411;-37
2022/06/26 06:56:30;;;;;;;11.93;4.70;;;;;;;25.17;47.17;101493.19;5207711;28;20401;-37
2022/06/26 06:59:03;;;;;;;6.72;4.20;;;;;;;25.22;47.18;101496.03;5209036;28;20417;-37
2022/06/26 07:01:37;;;;;;;9.07;4.60;;;;;;;25.21;47.41;101494.38;5198559;28;20406;-37
2022/06/26 07:04:09;;;;;;;13.25;4.78;;;;;;;25.42;46.96;101516.53;5199229;28;20453;-38
2022/06/26 07:06:43;;;;;;;8.93;4.07;;;;;;;25.55;46.81;101529.84;5204669;28;20426;-42
2022/06/26 07:09:15;;;;;;;11.43;4.45;;;;;;;25.87;46.50;101529.56;5209046;28;20503;-37
2022/06/26 07:11:48;;;;;;;6.47;3.53;;;;;;;26.21;46.13;101526.00;5207728;28;20480;-38
2022/06/26 07:14:20;;;;;;;10.27;3.47;;;;;;;26.77;45.64;101533.69;5203519;28;20460;-38
2022/06/26 07:16:54;;;;;;;7.97;3.45;;;;;;;26.72;45.33;101530.88;5208787;28;20464;-38
2022/06/26 07:19:26;;;;;;;6.43;3.53;;;;;;;26.86;45.31;101537.66;5193651;28;20706;-38
2022/06/26 07:21:59;;;;;;;10.40;3.83;;;;;;;26.83;45.16;101544.38;5208751;28;20832;-37
2022/06/26 07:24:31;;;;;;;6.53;3.45;;;;;;;26.68;45.19;101542.19;5200352;28;20445;-38
2022/06/26 07:27:04;;;;;;;7.47;3.13;;;;;;;26.83;45.18;101543.56;5211118;28;20416;-37
2022/06/26 07:29:37;;;;;;;5.45;2.70;;;;;;;27.12;45.01;101542.47;5209312;28;20750;-37
2022/06/26 07:32:11;;;;;;;5.88;3.15;;;;;;;27.25;44.57;101546.00;5196945;28;20409;-38
2022/06/26 07:34:44;;;;;;;9.25;3.58;;;;;;;27.25;44.56;101548.69;5208384;28;20423;-37
2022/06/26 07:37:16;;;;;;;9.05;3.33;;;;;;;27.12;44.44;101564.16;5203474;28;20429;-37
2022/06/26 07:39:49;;;;;;;5.72;3.30;;;;;;;26.89;44.55;101567.00;5203361;28;20425;-37
2022/06/26 07:42:21;;;;;;;5.77;3.03;;;;;;;26.65;44.74;101548.09;5206356;28;20917;-37
2022/06/26 07:44:54;;;;;;;6.38;3.13;;;;;;;26.62;44.70;101532.31;5198306;28;20416;-38
2022/06/26 07:47:28;;;;;;;7.07;2.80;;;;;;;26.83;44.71;101551.69;5205334;28;20467;-37
2022/06/26 07:50:00;;;;;;;10.00;2.92;;;;;;;26.93;44.49;101532.91;5209397;28;20510;-37
2022/06/26 07:52:33;;;;;;;6.32;2.88;;;;;;;27.52;44.04;101555.16;5211146;28;20505;-36
2022/06/26 07:55:38;;;;;;;7.00;2.75;;;;;;;27.80;43.73;101564.31;5206850;28;20405;-37
2022/06/26 07:58:10;;;;;;;5.32;2.75;;;;;;;28.10;43.46;101552.28;5201944;28;20409;-38
2022/06/26 08:00:43;;;;;;;7.10;2.42;;;;;;;28.38;43.46;101545.88;5169940;28;20496;-38
2022/06/26 08:03:16;;;;;;;6.65;2.40;;;;;;;28.65;42.93;101549.53;5202423;28;20493;-38
2022/06/26 08:05:49;;;;;;;5.68;1.70;;;;;;;28.75;42.85;101548.81;5207132;28;20457;-38
2022/06/26 08:08:21;;;;;;;6.15;2.22;;;;;;;28.67;42.68;101557.41;5208562;28;20497;-37
2022/06/26 08:10:54;;;;;;;4.43;2.00;;;;;;;28.42;42.60;101561.44;5203494;28;20881;-39
2022/06/26 08:13:27;;;;;;;6.05;3.25;;;;;;;28.23;42.79;101560.91;5205054;28;20414;-37
2022/06/26 08:15:59;;;;;;;8.60;2.78;;;;;;;27.91;42.50;101582.44;5205030;28;20501;-37
2022/06/26 08:18:33;;;;;;;4.75;1.90;;;;;;;27.61;42.93;101571.03;5202427;28;20490;-38
2022/06/26 08:23:53;;;;;;;4.60;1.90;;;;;;;27.27;42.75;101577.22;5200907;28;20429;-37
2022/06/26 08:26:25;;;;;;;8.18;1.85;;;;;;;27.21;42.71;101566.53;5202632;28;20504;-38
2022/06/26 08:28:57;;;;;;;7.68;1.77;;;;;;;27.23;42.41;101586.94;5202377;28;20428;-38
2022/06/26 08:31:30;;;;;;;5.88;1.67;;;;;;;26.58;42.46;101520.31;5190119;28;20540;-38
2022/06/26 08:34:04;;;;;;;4.32;1.65;;;;;;;27.02;42.40;101577.53;5203865;28;20956;-40
2022/06/26 08:36:38;;;;;;;4.05;1.65;;;;;;;26.99;42.49;101580.75;5204113;28;20433;-38
2022/06/26 08:39:11;;;;;;;6.40;2.10;;;;;;;27.11;42.25;101572.56;5196065;28;20897;-39
2022/06/26 08:41:47;;;;;;;3.20;1.80;;;;;;;27.32;42.14;101582.75;5199169;28;20851;-37
2022/06/26 08:44:19;;;;;;;4.93;1.70;;;;;;;27.45;41.89;101584.34;5192302;28;20417;-37
2022/06/26 08:46:54;;;;;;;7.85;1.80;;;;;;;27.74;41.76;101570.69;5194268;28;20421;-37
2022/06/26 08:49:28;;;;;;;6.07;2.00;;;;;;;27.84;41.77;101565.47;5193181;28;20508;-38
2022/06/26 08:52:04;;;;;;;4.57;1.70;;;;;;;27.93;41.31;101591.13;5175453;28;20423;-38
2022/06/26 08:54:37;;;;;;;5.25;1.83;;;;;;;27.83;41.24;101542.13;5185184;28;20409;-40
2022/06/26 08:57:12;;;;;;;4.40;1.38;;;;;;;28.13;41.11;101587.09;5172603;28;20398;-37
2022/06/26 08:59:45;;;;;;;5.53;1.65;;;;;;;28.23;41.07;101589.94;5198515;28;21055;-38
2022/06/26 09:02:18;;;;;;;4.53;1.90;;;;;;;28.16;40.64;101562.97;5200113;28;20512;-38
2022/06/26 09:04:52;;;;;;;5.68;1.80;;;;;;;28.19;40.67;101573.34;5192870;28;20777;-39
2022/06/26 09:07:25;;;;;;;6.82;2.38;;;;;;;28.08;40.52;101587.00;5194341;28;20504;-38
2022/06/26 09:09:57;;;;;;;6.78;2.13;;;;;;;27.88;40.71;101585.63;5190106;28;20512;-38
2022/06/26 09:12:37;;;;;;;5.27;1.67;;;;;;;27.53;40.84;101578.53;5190337;28;20444;-39
2022/06/26 09:15:18;;;;;;;7.80;2.30;;;;;;;27.44;40.94;101571.84;5196530;28;20436;-37
2022/06/26 09:18:01;;;;;;;6.57;2.30;;;;;;;27.36;40.82;101575.78;5198912;28;20636;-38
2022/06/26 09:20:38;;;;;;;9.20;2.47;;;;;;;27.35;40.81;101584.16;5196053;28;20433;-38
2022/06/26 09:23:11;;;;;;;7.57;2.13;;;;;;;27.36;40.78;101588.50;5195121;28;20883;-38
2022/06/26 09:25:45;;;;;;;12.85;4.43;;;;;;;27.27;40.65;101576.41;5197492;28;20428;-39
2022/06/26 09:28:20;;;;;;;9.98;3.40;;;;;;;27.24;40.67;101566.06;5195803;28;20475;-38
2022/06/26 09:30:55;;;;;;;7.18;2.55;;;;;;;27.32;40.45;101568.38;5187835;28;20427;-38
2022/06/26 09:33:30;;;;;;;5.10;2.30;;;;;;;27.48;40.41;101583.03;5192528;28;20427;-38
2022/06/26 09:36:07;;;;;;;3.63;2.08;;;;;;;27.37;40.32;101582.00;5200311;28;20421;-37
2022/06/26 09:38:39;;;;;;;10.80;2.42;;;;;;;27.44;40.23;101588.13;5195640;28;20787;-38
2022/06/26 09:41:11;;;;;;;6.97;2.13;;;;;;;27.64;40.14;101586.81;5194467;28;20993;-37
2022/06/26 09:43:45;;;;;;;5.57;2.15;;;;;;;27.82;39.74;101594.75;5188194;28;20928;-39
2022/06/26 09:46:18;;;;;;;5.63;2.65;;;;;;;27.90;39.58;101599.75;5171942;28;20419;-40
2022/06/26 09:48:51;;;;;;;5.63;2.58;;;;;;;27.76;39.76;101593.81;5199442;28;20900;-37
2022/06/26 09:51:26;;;;;;;7.72;3.05;;;;;;;27.59;39.91;101593.81;5194896;28;20432;-40
2022/06/26 09:53:59;;;;;;;8.20;3.53;;;;;;;27.57;39.79;101597.84;5198087;28;20416;-40
2022/06/26 09:56:34;;;;;;;6.65;3.30;;;;;;;27.46;39.58;101588.69;5198720;28;20579;-38
2022/06/26 09:59:09;;;;;;;7.88;3.03;;;;;;;27.41;39.88;101583.19;5201128;28;20939;-37
2022/06/26 10:07:24;;;;;;;6.13;3.25;;;;;;;27.62;39.70;101595.19;5202911;28;20944;-43
2022/06/26 10:09:57;;;;;;;9.60;3.58;;;;;;;27.51;39.93;101594.22;5199265;28;20434;-40
2022/06/26 10:12:30;;;;;;;6.18;2.88;;;;;;;27.52;39.70;101597.75;5202223;28;21072;-36
2022/06/26 10:15:03;;;;;;;5.22;2.58;;;;;;;27.42;39.53;101598.38;5204924;28;20416;-41
2022/06/26 10:17:56;;;;;;;4.75;2.58;;;;;;;27.32;39.78;101592.78;5201014;28;20506;-38
2022/06/26 10:20:31;;;;;;;4.82;2.28;;;;;;;27.40;39.49;101597.81;5194118;28;20974;-38
2022/06/26 10:23:05;;;;;;;5.47;2.95;;;;;;;27.43;39.65;101600.03;5195656;28;20413;-38
2022/06/26 10:25:44;;;;;;;3.83;2.30;;;;;;;27.49;39.56;101590.91;5193300;28;20970;-39
2022/06/26 10:28:19;;;;;;;4.72;2.47;;;;;;;27.69;39.39;101605.91;5195263;28;20444;-42
2022/06/26 10:30:52;;;;;;;6.13;2.50;;;;;;;27.75;39.16;101599.47;5195420;28;20778;-41
2022/06/26 10:33:24;;;;;;;4.80;2.50;;;;;;;27.80;39.16;101599.59;5195990;28;20449;-38
2022/06/26 10:35:57;;;;;;;5.25;2.88;;;;;;;27.63;39.25;101601.47;5195191;28;20545;-38
2022/06/26 10:38:31;;;;;;;6.50;2.90;;;;;;;27.45;39.52;101606.03;5182949;28;20413;-38
2022/06/26 10:44:04;;;;;;;5.13;2.57;;;;;;;27.10;40.29;101609.72;5198624;28;20536;-40
2022/06/26 10:46:39;;;;;;;5.45;2.60;;;;;;;27.03;40.00;101598.16;5197846;28;20414;-39
2022/06/26 10:49:11;;;;;;;8.10;2.70;;;;;;;27.09;39.87;101597.19;5196362;28;20421;-38
2022/06/26 10:51:46;;;;;;;7.32;2.63;;;;;;;27.22;39.58;101606.13;5192587;28;20418;-38
2022/06/26 10:54:22;;;;;;;5.38;2.72;;;;;;;27.21;39.57;101602.59;5197552;28;20799;-38
2022/06/26 10:57:12;;;;;;;6.18;2.17;;;;;;;27.21;39.70;101605.31;5186469;28;20432;-39
2022/06/26 10:59:46;;;;;;;5.43;2.33;;;;;;;26.99;39.79;101586.16;5197089;28;20428;-40
2022/06/26 11:02:18;;;;;;;4.35;2.53;;;;;;;27.10;39.68;101617.03;5194444;28;20431;-41
2022/06/26 11:04:52;;;;;;;6.05;2.35;;;;;;;27.11;39.77;101614.06;5197002;28;20443;-38
2022/06/26 11:07:25;;;;;;;3.72;1.80;;;;;;;27.04;39.89;101599.81;5198446;28;20422;-38
2022/06/26 11:10:00;;;;;;;6.60;2.25;;;;;;;27.11;39.82;101611.34;5199331;28;20437;-40
2022/06/26 11:12:41;;;;;;;3.00;2.13;;;;;;;27.10;39.77;101612.41;5195665;28;20419;-38
2022/06/26 11:15:27;;;;;;;6.07;2.25;;;;;;;27.12;39.68;101618.41;5198021;28;20813;-40
2022/06/26 11:18:01;;;;;;;4.55;1.80;;;;;;;27.18;39.36;101618.53;5199566;28;22519;-40
2022/06/26 11:20:50;;;;;;;6.95;2.50;;;;;;;27.03;39.51;101614.44;5199471;28;20474;-39
2022/06/26 11:27:10;;;;;;;7.45;2.10;;;;;;;27.16;39.22;101617.94;5216813;22;20425;-38
2022/06/26 11:29:43;;;;;;;4.45;2.17;;;;;;;27.17;39.22;101619.63;5215452;28;20912;-38
2022/06/26 11:32:15;;;;;;;5.43;2.00;;;;;;;27.07;39.48;101610.19;5218461;28;21014;-38
2022/06/26 11:34:50;;;;;;;4.70;1.90;;;;;;;26.55;39.47;101519.97;5216473;28;20431;-43
2022/06/26 11:37:37;;;;;;;6.85;2.08;;;;;;;26.92;39.52;101601.75;5217437;28;20522;-37
2022/06/26 11:40:14;;;;;;;9.90;1.80;;;;;;;26.80;39.85;101609.91;5216722;28;20426;-38
2022/06/26 11:42:55;;;;;;;5.68;1.73;;;;;;;26.55;40.17;101618.31;5214902;28;20712;-39
2022/06/26 11:45:31;;;;;;;3.20;1.63;;;;;;;26.30;40.45;101617.72;5217177;28;20424;-36
2022/06/26 11:48:08;;;;;;;3.58;1.35;;;;;;;26.15;40.63;101616.28;5215574;28;20417;-38
2022/06/26 11:50:41;;;;;;;3.70;1.50;;;;;;;26.19;40.56;101619.34;5212492;28;21025;-38
2022/06/26 11:53:24;;;;;;;5.60;1.47;;;;;;;26.30;40.23;101606.88;5215030;28;20428;-40
2022/06/26 11:56:00;;;;;;;8.60;1.85;;;;;;;26.36;40.05;101614.88;5188356;28;20422;-37
2022/06/26 11:58:35;;;;;;;4.43;1.70;;;;;;;26.36;40.01;101608.66;5207684;28;20868;-38
2022/06/26 12:01:10;;;;;;;5.23;1.80;;;;;;;26.49;39.77;101597.59;5214409;28;20574;-38
2022/06/26 12:03:53;;;;;;;5.93;1.73;;;;;;;26.56;39.56;101592.88;5202716;28;20534;-37
2022/06/26 12:06:35;;;;;;;3.08;1.75;;;;;;;26.66;39.34;101598.53;5205097;28;20735;-40
2022/06/26 12:09:20;;;;;;;3.05;1.48;;;;;;;26.55;39.48;101612.91;5207696;28;20430;-39